sensor_id;sensor_type;location;lat;lon;timestamp;pressure;altitude;pressure_sealevel;temperature;humidity
79453;BME280;68899;52.116;5.404;2023-10-19T00:00:56;99362.38;;;9.85;90.03
79453;BME280;68899;52.116;5.404;2023-10-19T00:03:24;99365.56;;;9.88;90.28
79453;BME280;68899;52.116;5.404;2023-10-19T00:05:51;99348.16;;;9.87;90.24
79453;BME280;68899;52.116;5.404;2023-10-19T00:08:17;99354.09;;;9.89;90.28
79453;BME280;68899;52.116;5.404;2023-10-19T00:10:50;99346.13;;;9.91;90.51
79453;BME280;68899;52.116;5.404;2023-10-19T00:13:29;99345.16;;;9.92;90.48
79453;BME280;68899;52.116;5.404;2023-10-19T00:15:56;99350.16;;;9.95;90.56
79453;BME280;68899;52.116;5.404;2023-10-19T00:18:24;99337.00;;;9.95;90.58
79453;BME280;68899;52.116;5.404;2023-10-19T00:20:52;99336.88;;;9.97;90.49
79453;BME280;68899;52.116;5.404;2023-10-19T00:23:23;99332.47;;;9.97;90.73
79453;BME280;68899;52.116;5.404;2023-10-19T00:25:59;99338.53;;;9.98;90.65
79453;BME280;68899;52.116;5.404;2023-10-19T00:28:26;99341.78;;;10.01;90.72
79453;BME280;68899;52.116;5.404;2023-10-19T00:30:54;99328.50;;;10.03;90.67
79453;BME280;68899;52.116;5.404;2023-10-19T00:33:26;99332.78;;;10.04;90.78
79453;BME280;68899;52.116;5.404;2023-10-19T00:35:55;99329.31;;;10.03;91.07
79453;BME280;68899;52.116;5.404;2023-10-19T00:38:27;99336.13;;;10.06;91.01
79453;BME280;68899;52.116;5.404;2023-10-19T00:40:54;99327.28;;;10.07;91.03
79453;BME280;68899;52.116;5.404;2023-10-19T00:43:34;99336.84;;;10.08;91.18
79453;BME280;68899;52.116;5.404;2023-10-19T00:46:10;99338.38;;;10.10;91.21
79453;BME280;68899;52.116;5.404;2023-10-19T00:48:54;99323.44;;;10.11;91.48
79453;BME280;68899;52.116;5.404;2023-10-19T00:51:31;99321.50;;;10.13;91.69
79453;BME280;68899;52.116;5.404;2023-10-19T00:54:04;99326.63;;;10.14;91.41
79453;BME280;68899;52.116;5.404;2023-10-19T00:56:37;99319.47;;;10.16;91.55
79453;BME280;68899;52.116;5.404;2023-10-19T00:59:07;99319.22;;;10.19;91.77
79453;BME280;68899;52.116;5.404;2023-10-19T01:01:42;99317.41;;;10.20;91.67
79453;BME280;68899;52.116;5.404;2023-10-19T01:04:15;99313.72;;;10.23;91.83
79453;BME280;68899;52.116;5.404;2023-10-19T01:06:42;99305.81;;;10.23;91.75
79453;BME280;68899;52.116;5.404;2023-10-19T01:09:28;99313.47;;;10.26;91.73
79453;BME280;68899;52.116;5.404;2023-10-19T01:11:54;99308.91;;;10.28;91.88
79453;BME280;68899;52.116;5.404;2023-10-19T01:14:21;99310.56;;;10.29;91.96
79453;BME280;68899;52.116;5.404;2023-10-19T01:16:49;99307.69;;;10.32;92.10
79453;BME280;68899;52.116;5.404;2023-10-19T01:19:23;99311.03;;;10.34;92.32
79453;BME280;68899;52.116;5.404;2023-10-19T01:21:50;99304.66;;;10.36;92.31
79453;BME280;68899;52.116;5.404;2023-10-19T01:24:25;99297.63;;;10.37;92.52
79453;BME280;68899;52.116;5.404;2023-10-19T01:27:21;99293.88;;;10.39;92.61
79453;BME280;68899;52.116;5.404;2023-10-19T01:29:48;99297.94;;;10.43;92.37
79453;BME280;68899;52.116;5.404;2023-10-19T01:32:18;99290.88;;;10.44;92.53
79453;BME280;68899;52.116;5.404;2023-10-19T01:34:44;99292.53;;;10.45;92.50
79453;BME280;68899;52.116;5.404;2023-10-19T01:37:11;99288.66;;;10.49;92.60
79453;BME280;68899;52.116;5.404;2023-10-19T01:39:38;99283.28;;;10.51;93.05
79453;BME280;68899;52.116;5.404;2023-10-19T01:42:08;99287.44;;;10.53;93.15
79453;BME280;68899;52.116;5.404;2023-10-19T01:44:35;99281.22;;;10.54;92.66
79453;BME280;68899;52.116;5.404;2023-10-19T01:47:02;99282.75;;;10.57;92.80
79453;BME280;68899;52.116;5.404;2023-10-19T01:49:32;99279.00;;;10.59;92.94
79453;BME280;68899;52.116;5.404;2023-10-19T01:52:01;99267.56;;;10.60;93.00
79453;BME280;68899;52.116;5.404;2023-10-19T01:54:27;99278.78;;;10.62;93.23
79453;BME280;68899;52.116;5.404;2023-10-19T01:56:55;99267.97;;;10.65;93.42
79453;BME280;68899;52.116;5.404;2023-10-19T01:59:23;99281.81;;;10.67;93.27
79453;BME280;68899;52.116;5.404;2023-10-19T02:02:01;99274.66;;;10.69;93.41
79453;BME280;68899;52.116;5.404;2023-10-19T02:04:29;99275.19;;;10.73;93.36
79453;BME280;68899;52.116;5.404;2023-10-19T02:07:01;99266.19;;;10.75;93.66
79453;BME280;68899;52.116;5.404;2023-10-19T02:09:27;99265.13;;;10.78;93.80
79453;BME280;68899;52.116;5.404;2023-10-19T02:11:59;99263.19;;;10.80;93.64
79453;BME280;68899;52.116;5.404;2023-10-19T02:14:27;99260.03;;;10.86;93.89
79453;BME280;68899;52.116;5.404;2023-10-19T02:17:00;99260.84;;;10.87;94.07
79453;BME280;68899;52.116;5.404;2023-10-19T02:19:28;99263.06;;;10.91;94.08
79453;BME280;68899;52.116;5.404;2023-10-19T02:21:57;99268.03;;;10.94;94.14
79453;BME280;68899;52.116;5.404;2023-10-19T02:24:24;99259.06;;;10.97;94.50
79453;BME280;68899;52.116;5.404;2023-10-19T02:26:57;99265.03;;;10.99;94.46
79453;BME280;68899;52.116;5.404;2023-10-19T02:29:23;99263.22;;;10.99;94.50
79453;BME280;68899;52.116;5.404;2023-10-19T02:31:52;99261.13;;;11.03;94.81
79453;BME280;68899;52.116;5.404;2023-10-19T02:34:20;99269.75;;;11.05;94.39
79453;BME280;68899;52.116;5.404;2023-10-19T02:36:46;99263.50;;;11.06;94.55
79453;BME280;68899;52.116;5.404;2023-10-19T02:39:15;99261.56;;;11.08;94.62
79453;BME280;68899;52.116;5.404;2023-10-19T02:41:44;99259.50;;;11.12;94.59
79453;BME280;68899;52.116;5.404;2023-10-19T02:44:16;99256.75;;;11.13;94.64
79453;BME280;68899;52.116;5.404;2023-10-19T02:46:42;99259.22;;;11.15;94.36
79453;BME280;68899;52.116;5.404;2023-10-19T02:49:11;99253.53;;;11.19;94.77
79453;BME280;68899;52.116;5.404;2023-10-19T02:51:39;99250.66;;;11.22;94.88
79453;BME280;68899;52.116;5.404;2023-10-19T02:54:07;99256.75;;;11.23;95.00
79453;BME280;68899;52.116;5.404;2023-10-19T02:56:35;99260.91;;;11.25;94.99
79453;BME280;68899;52.116;5.404;2023-10-19T02:59:02;99253.00;;;11.25;95.07
79453;BME280;68899;52.116;5.404;2023-10-19T03:01:31;99257.16;;;11.28;95.19
79453;BME280;68899;52.116;5.404;2023-10-19T03:04:02;99253.44;;;11.30;95.14
79453;BME280;68899;52.116;5.404;2023-10-19T03:06:31;99251.34;;;11.34;95.33
79453;BME280;68899;52.116;5.404;2023-10-19T03:09:05;99245.94;;;11.36;95.28
79453;BME280;68899;52.116;5.404;2023-10-19T03:11:43;99244.72;;;11.40;95.57
79453;BME280;68899;52.116;5.404;2023-10-19T03:14:11;99240.13;;;11.42;95.62
79453;BME280;68899;52.116;5.404;2023-10-19T03:16:38;99243.44;;;11.44;95.42
79453;BME280;68899;52.116;5.404;2023-10-19T03:19:08;99242.47;;;11.45;95.19
79453;BME280;68899;52.116;5.404;2023-10-19T03:21:35;99244.97;;;11.46;95.57
79453;BME280;68899;52.116;5.404;2023-10-19T03:24:16;99239.69;;;11.46;95.60
79453;BME280;68899;52.116;5.404;2023-10-19T03:27:10;99236.81;;;11.49;95.69
79453;BME280;68899;52.116;5.404;2023-10-19T03:29:42;99240.94;;;11.52;95.79
79453;BME280;68899;52.116;5.404;2023-10-19T03:32:20;99225.00;;;11.53;95.67
79453;BME280;68899;52.116;5.404;2023-10-19T03:34:52;99226.66;;;11.54;95.83
79453;BME280;68899;52.116;5.404;2023-10-19T03:37:23;99222.22;;;11.55;95.75
79453;BME280;68899;52.116;5.404;2023-10-19T03:39:51;99225.72;;;11.55;95.71
79453;BME280;68899;52.116;5.404;2023-10-19T03:42:18;99223.78;;;11.57;95.88
79453;BME280;68899;52.116;5.404;2023-10-19T03:44:47;99229.72;;;11.59;95.89
79453;BME280;68899;52.116;5.404;2023-10-19T03:47:14;99220.00;;;11.60;95.82
79453;BME280;68899;52.116;5.404;2023-10-19T03:49:46;99224.31;;;11.61;95.72
79453;BME280;68899;52.116;5.404;2023-10-19T03:52:13;99220.56;;;11.64;95.83
79453;BME280;68899;52.116;5.404;2023-10-19T03:54:40;99223.06;;;11.65;95.78
79453;BME280;68899;52.116;5.404;2023-10-19T03:57:11;99206.44;;;11.65;96.02
79453;BME280;68899;52.116;5.404;2023-10-19T03:59:51;99205.47;;;11.66;96.01
79453;BME280;68899;52.116;5.404;2023-10-19T04:02:27;99211.56;;;11.66;96.09
79453;BME280;68899;52.116;5.404;2023-10-19T04:04:56;99208.63;;;11.69;96.08
79453;BME280;68899;52.116;5.404;2023-10-19T04:07:24;99208.47;;;11.71;96.28
79453;BME280;68899;52.116;5.404;2023-10-19T04:09:54;99205.69;;;11.72;96.00
79453;BME280;68899;52.116;5.404;2023-10-19T04:12:27;99206.28;;;11.76;96.23
79453;BME280;68899;52.116;5.404;2023-10-19T04:15:03;99208.06;;;11.75;95.96
79453;BME280;68899;52.116;5.404;2023-10-19T04:17:36;99202.66;;;11.77;96.09
79453;BME280;68899;52.116;5.404;2023-10-19T04:20:05;99198.91;;;11.79;96.27
79453;BME280;68899;52.116;5.404;2023-10-19T04:22:55;99191.84;;;11.80;96.08
79453;BME280;68899;52.116;5.404;2023-10-19T04:25:32;99187.53;;;11.79;96.56
79453;BME280;68899;52.116;5.404;2023-10-19T04:27:58;99187.53;;;11.79;95.83
79453;BME280;68899;52.116;5.404;2023-10-19T04:30:26;99192.94;;;11.77;95.98
79453;BME280;68899;52.116;5.404;2023-10-19T04:32:53;99194.06;;;11.75;96.23
79453;BME280;68899;52.116;5.404;2023-10-19T04:35:24;99209.19;;;11.73;96.08
79453;BME280;68899;52.116;5.404;2023-10-19T04:37:51;99210.44;;;11.69;95.91
79453;BME280;68899;52.116;5.404;2023-10-19T04:40:20;99209.59;;;11.68;96.06
79453;BME280;68899;52.116;5.404;2023-10-19T04:42:47;99213.22;;;11.67;96.35
79453;BME280;68899;52.116;5.404;2023-10-19T04:45:14;99208.78;;;11.68;96.02
79453;BME280;68899;52.116;5.404;2023-10-19T04:47:41;99209.06;;;11.65;95.83
79453;BME280;68899;52.116;5.404;2023-10-19T04:50:08;99204.91;;;11.62;95.92
79453;BME280;68899;52.116;5.404;2023-10-19T04:52:37;99208.50;;;11.61;95.71
79453;BME280;68899;52.116;5.404;2023-10-19T04:55:05;99205.19;;;11.59;95.79
79453;BME280;68899;52.116;5.404;2023-10-19T04:57:31;99212.25;;;11.58;95.52
79453;BME280;68899;52.116;5.404;2023-10-19T04:59:58;99212.25;;;11.58;95.81
79453;BME280;68899;52.116;5.404;2023-10-19T05:02:24;99214.88;;;11.58;95.75
79453;BME280;68899;52.116;5.404;2023-10-19T05:04:51;99210.31;;;11.60;95.75
79453;BME280;68899;52.116;5.404;2023-10-19T05:07:18;99223.19;;;11.64;95.81
79453;BME280;68899;52.116;5.404;2023-10-19T05:09:45;99222.25;;;11.65;95.97
79453;BME280;68899;52.116;5.404;2023-10-19T05:12:12;99216.97;;;11.65;95.70
79453;BME280;68899;52.116;5.404;2023-10-19T05:14:41;99218.47;;;11.67;95.94
79453;BME280;68899;52.116;5.404;2023-10-19T05:17:08;99224.28;;;11.71;95.92
79453;BME280;68899;52.116;5.404;2023-10-19T05:19:37;99224.16;;;11.72;96.05
79453;BME280;68899;52.116;5.404;2023-10-19T05:22:08;99230.13;;;11.74;95.94
79453;BME280;68899;52.116;5.404;2023-10-19T05:24:36;99233.59;;;11.75;95.96
79453;BME280;68899;52.116;5.404;2023-10-19T05:27:02;99229.97;;;11.76;95.59
79453;BME280;68899;52.116;5.404;2023-10-19T05:29:33;99234.28;;;11.77;95.93
79453;BME280;68899;52.116;5.404;2023-10-19T05:32:00;99244.41;;;11.81;95.76
79453;BME280;68899;52.116;5.404;2023-10-19T05:34:28;99243.56;;;11.81;96.09
79453;BME280;68899;52.116;5.404;2023-10-19T05:37:02;99242.75;;;11.80;96.02
79453;BME280;68899;52.116;5.404;2023-10-19T05:39:31;99248.59;;;11.84;95.88
79453;BME280;68899;52.116;5.404;2023-10-19T05:42:00;99235.25;;;11.85;95.89
79453;BME280;68899;52.116;5.404;2023-10-19T05:44:30;99248.84;;;11.91;95.94
79453;BME280;68899;52.116;5.404;2023-10-19T05:46:57;99253.16;;;11.92;96.11
79453;BME280;68899;52.116;5.404;2023-10-19T05:49:28;99245.94;;;11.94;96.33
79453;BME280;68899;52.116;5.404;2023-10-19T05:51:55;99246.75;;;11.94;96.26
79453;BME280;68899;52.116;5.404;2023-10-19T05:54:22;99253.53;;;11.97;96.31
79453;BME280;68899;52.116;5.404;2023-10-19T05:56:50;99259.63;;;11.97;96.21
79453;BME280;68899;52.116;5.404;2023-10-19T05:59:16;99251.47;;;12.00;96.20
79453;BME280;68899;52.116;5.404;2023-10-19T06:01:43;99252.44;;;11.99;96.30
79453;BME280;68899;52.116;5.404;2023-10-19T06:04:13;99255.91;;;12.00;96.21
79453;BME280;68899;52.116;5.404;2023-10-19T06:06:40;99256.72;;;12.00;96.10
79453;BME280;68899;52.116;5.404;2023-10-19T06:09:08;99256.59;;;12.02;96.19
79453;BME280;68899;52.116;5.404;2023-10-19T06:11:35;99260.72;;;12.04;96.19
79453;BME280;68899;52.116;5.404;2023-10-19T06:14:05;99255.31;;;12.06;96.25
79453;BME280;68899;52.116;5.404;2023-10-19T06:16:33;99253.41;;;12.08;96.43
79453;BME280;68899;52.116;5.404;2023-10-19T06:19:01;99257.69;;;12.09;96.31
79453;BME280;68899;52.116;5.404;2023-10-19T06:21:29;99247.00;;;12.10;96.36
79453;BME280;68899;52.116;5.404;2023-10-19T06:23:56;99258.38;;;12.11;96.48
79453;BME280;68899;52.116;5.404;2023-10-19T06:26:23;99252.94;;;12.12;96.50
79453;BME280;68899;52.116;5.404;2023-10-19T06:28:50;99252.94;;;12.12;96.16
79453;BME280;68899;52.116;5.404;2023-10-19T06:31:17;99253.63;;;12.14;96.32
79453;BME280;68899;52.116;5.404;2023-10-19T06:33:43;99256.25;;;12.14;96.22
79453;BME280;68899;52.116;5.404;2023-10-19T06:36:10;99253.47;;;12.16;96.37
79453;BME280;68899;52.116;5.404;2023-10-19T06:38:36;99256.97;;;12.16;96.26
79453;BME280;68899;52.116;5.404;2023-10-19T06:41:13;99258.75;;;12.16;96.05
79453;BME280;68899;52.116;5.404;2023-10-19T06:43:39;99268.47;;;12.15;96.18
79453;BME280;68899;52.116;5.404;2023-10-19T06:46:08;99260.44;;;12.17;96.13
79453;BME280;68899;52.116;5.404;2023-10-19T06:48:38;99261.38;;;12.16;96.11
79453;BME280;68899;52.116;5.404;2023-10-19T06:51:06;99271.94;;;12.16;96.20
79453;BME280;68899;52.116;5.404;2023-10-19T06:53:32;99270.28;;;12.15;96.34
79453;BME280;68899;52.116;5.404;2023-10-19T06:56:00;99277.22;;;12.16;96.18
79453;BME280;68899;52.116;5.404;2023-10-19T06:58:27;99286.81;;;12.17;96.05
79453;BME280;68899;52.116;5.404;2023-10-19T07:00:53;99282.22;;;12.19;95.93
79453;BME280;68899;52.116;5.404;2023-10-19T07:03:23;99289.81;;;12.22;96.02
79453;BME280;68899;52.116;5.404;2023-10-19T07:05:51;99296.91;;;12.22;96.10
79453;BME280;68899;52.116;5.404;2023-10-19T07:08:19;99294.94;;;12.24;96.19
79453;BME280;68899;52.116;5.404;2023-10-19T07:10:47;99301.78;;;12.26;96.58
79453;BME280;68899;52.116;5.404;2023-10-19T07:13:16;99297.31;;;12.27;96.20
79453;BME280;68899;52.116;5.404;2023-10-19T07:15:45;99302.31;;;12.30;96.16
79453;BME280;68899;52.116;5.404;2023-10-19T07:18:11;99305.78;;;12.30;96.08
79453;BME280;68899;52.116;5.404;2023-10-19T07:20:39;99305.47;;;12.33;96.19
79453;BME280;68899;52.116;5.404;2023-10-19T07:23:08;99309.78;;;12.34;96.21
79453;BME280;68899;52.116;5.404;2023-10-19T07:25:48;99309.66;;;12.36;96.03
79453;BME280;68899;52.116;5.404;2023-10-19T07:28:19;99314.78;;;12.37;95.85
79453;BME280;68899;52.116;5.404;2023-10-19T07:30:46;99311.00;;;12.40;96.04
79453;BME280;68899;52.116;5.404;2023-10-19T07:33:13;99310.84;;;12.41;96.02
79453;BME280;68899;52.116;5.404;2023-10-19T07:35:47;99315.03;;;12.44;96.07
79453;BME280;68899;52.116;5.404;2023-10-19T07:38:14;99312.41;;;12.44;96.04
79453;BME280;68899;52.116;5.404;2023-10-19T07:40:42;99304.19;;;12.47;95.94
79453;BME280;68899;52.116;5.404;2023-10-19T07:43:10;99300.44;;;12.50;96.31
79453;BME280;68899;52.116;5.404;2023-10-19T07:45:36;99313.34;;;12.53;96.03
79453;BME280;68899;52.116;5.404;2023-10-19T07:48:04;99313.03;;;12.56;95.94
79453;BME280;68899;52.116;5.404;2023-10-19T07:50:38;99313.72;;;12.58;95.84
79453;BME280;68899;52.116;5.404;2023-10-19T07:53:06;99313.56;;;12.59;95.74
79453;BME280;68899;52.116;5.404;2023-10-19T07:55:33;99312.47;;;12.62;96.04
79453;BME280;68899;52.116;5.404;2023-10-19T07:57:59;99311.50;;;12.63;96.06
79453;BME280;68899;52.116;5.404;2023-10-19T08:00:27;99313.16;;;12.64;96.10
79453;BME280;68899;52.116;5.404;2023-10-19T08:02:55;99319.94;;;12.66;96.32
79453;BME280;68899;52.116;5.404;2023-10-19T08:05:22;99315.38;;;12.68;95.97
79453;BME280;68899;52.116;5.404;2023-10-19T08:07:49;99310.78;;;12.70;96.15
79453;BME280;68899;52.116;5.404;2023-10-19T08:10:18;99313.25;;;12.72;95.77
79453;BME280;68899;52.116;5.404;2023-10-19T08:12:46;99310.47;;;12.73;96.14
79453;BME280;68899;52.116;5.404;2023-10-19T08:15:17;99307.69;;;12.75;95.91
79453;BME280;68899;52.116;5.404;2023-10-19T08:17:46;99310.88;;;12.79;95.95
79453;BME280;68899;52.116;5.404;2023-10-19T08:20:17;99308.91;;;12.81;95.86
79453;BME280;68899;52.116;5.404;2023-10-19T08:22:54;99306.97;;;12.83;96.19
79453;BME280;68899;52.116;5.404;2023-10-19T08:25:26;99311.97;;;12.86;96.11
79453;BME280;68899;52.116;5.404;2023-10-19T08:28:17;99308.19;;;12.88;95.79
79453;BME280;68899;52.116;5.404;2023-10-19T08:30:44;99305.25;;;12.91;96.13
79453;BME280;68899;52.116;5.404;2023-10-19T08:33:11;99309.41;;;12.94;95.93
79453;BME280;68899;52.116;5.404;2023-10-19T08:35:40;99312.91;;;12.94;96.05
79453;BME280;68899;52.116;5.404;2023-10-19T08:38:06;99314.25;;;12.98;96.23
79453;BME280;68899;52.116;5.404;2023-10-19T08:40:38;99307.00;;;13.00;95.99
79453;BME280;68899;52.116;5.404;2023-10-19T08:43:05;99298.81;;;13.04;96.03
79453;BME280;68899;52.116;5.404;2023-10-19T08:45:34;99294.06;;;13.07;96.00
79453;BME280;68899;52.116;5.404;2023-10-19T08:48:01;99297.22;;;13.11;95.99
79453;BME280;68899;52.116;5.404;2023-10-19T08:50:30;99290.00;;;13.13;96.05
79453;BME280;68899;52.116;5.404;2023-10-19T08:52:59;99294.97;;;13.16;95.84
79453;BME280;68899;52.116;5.404;2023-10-19T08:55:26;99294.81;;;13.17;95.86
79453;BME280;68899;52.116;5.404;2023-10-19T08:58:14;99301.63;;;13.20;95.59
79453;BME280;68899;52.116;5.404;2023-10-19T09:00:43;99300.53;;;13.22;95.73
79453;BME280;68899;52.116;5.404;2023-10-19T09:03:14;99299.41;;;13.25;95.54
79453;BME280;68899;52.116;5.404;2023-10-19T09:05:43;99296.44;;;13.28;95.45
79453;BME280;68899;52.116;5.404;2023-10-19T09:08:17;99295.19;;;13.32;95.61
79453;BME280;68899;52.116;5.404;2023-10-19T09:10:46;99295.53;;;13.37;95.46
79453;BME280;68899;52.116;5.404;2023-10-19T09:13:13;99302.06;;;13.43;95.55
79453;BME280;68899;52.116;5.404;2023-10-19T09:15:42;99291.56;;;13.51;95.64
79453;BME280;68899;52.116;5.404;2023-10-19T09:18:17;99294.97;;;13.61;95.50
79453;BME280;68899;52.116;5.404;2023-10-19T09:20:46;99289.91;;;13.68;95.28
79453;BME280;68899;52.116;5.404;2023-10-19T09:25:49;99282.56;;;13.79;95.34
79453;BME280;68899;52.116;5.404;2023-10-19T09:28:15;99287.41;;;13.84;95.11
79453;BME280;68899;52.116;5.404;2023-10-19T09:30:43;99286.09;;;13.88;94.79
79453;BME280;68899;52.116;5.404;2023-10-19T09:33:10;99292.75;;;13.92;94.79
79453;BME280;68899;52.116;5.404;2023-10-19T09:35:38;99285.16;;;13.97;95.04
79453;BME280;68899;52.116;5.404;2023-10-19T09:38:06;99297.56;;;13.97;94.54
79453;BME280;68899;52.116;5.404;2023-10-19T09:40:32;99293.09;;;13.97;94.60
79453;BME280;68899;52.116;5.404;2023-10-19T09:43:07;99282.22;;;14.00;94.72
79453;BME280;68899;52.116;5.404;2023-10-19T09:45:37;99279.44;;;14.02;94.40
79453;BME280;68899;52.116;5.404;2023-10-19T09:48:08;99284.41;;;14.05;94.37
79453;BME280;68899;52.116;5.404;2023-10-19T09:50:35;99273.53;;;14.08;94.40
79453;BME280;68899;52.116;5.404;2023-10-19T09:53:03;99276.38;;;14.14;94.54
79453;BME280;68899;52.116;5.404;2023-10-19T09:55:37;99272.44;;;14.19;94.40
79453;BME280;68899;52.116;5.404;2023-10-19T09:58:16;99273.66;;;14.32;94.05
79453;BME280;68899;52.116;5.404;2023-10-19T10:00:47;99255.44;;;14.47;94.24
79453;BME280;68899;52.116;5.404;2023-10-19T10:03:53;99243.94;;;14.64;93.89
79453;BME280;68899;52.116;5.404;2023-10-19T10:09:21;99257.03;;;14.74;93.33
79453;BME280;68899;52.116;5.404;2023-10-19T10:11:55;99261.34;;;14.75;93.25
79453;BME280;68899;52.116;5.404;2023-10-19T10:14:23;99261.00;;;14.70;93.10
79453;BME280;68899;52.116;5.404;2023-10-19T10:17:01;99259.97;;;14.63;92.78
79453;BME280;68899;52.116;5.404;2023-10-19T10:19:28;99258.31;;;14.62;93.07
79453;BME280;68899;52.116;5.404;2023-10-19T10:22:13;99265.59;;;14.60;93.31
79453;BME280;68899;52.116;5.404;2023-10-19T10:24:41;99264.44;;;14.62;93.09
79453;BME280;68899;52.116;5.404;2023-10-19T10:27:08;99271.06;;;14.66;93.05
79453;BME280;68899;52.116;5.404;2023-10-19T10:29:36;99270.25;;;14.74;93.53
79453;BME280;68899;52.116;5.404;2023-10-19T10:32:03;99270.94;;;14.76;92.72
79453;BME280;68899;52.116;5.404;2023-10-19T10:37:06;99262.34;;;14.82;92.38
79453;BME280;68899;52.116;5.404;2023-10-19T10:39:35;99253.25;;;14.85;92.43
79453;BME280;68899;52.116;5.404;2023-10-19T10:42:04;99247.81;;;14.86;92.21
79453;BME280;68899;52.116;5.404;2023-10-19T10:44:45;99245.31;;;14.85;92.34
79453;BME280;68899;52.116;5.404;2023-10-19T10:47:19;99251.44;;;14.85;92.30
79453;BME280;68899;52.116;5.404;2023-10-19T10:49:56;99247.81;;;14.86;92.37
79453;BME280;68899;52.116;5.404;2023-10-19T10:52:31;99239.88;;;14.86;92.11
79453;BME280;68899;52.116;5.404;2023-10-19T10:55:06;99237.22;;;14.86;92.35
79453;BME280;68899;52.116;5.404;2023-10-19T10:57:33;99231.94;;;14.86;92.12
79453;BME280;68899;52.116;5.404;2023-10-19T11:00:06;99230.94;;;14.87;92.21
79453;BME280;68899;52.116;5.404;2023-10-19T11:02:37;99220.84;;;14.91;92.53
79453;BME280;68899;52.116;5.404;2023-10-19T11:05:10;99231.97;;;14.94;92.16
79453;BME280;68899;52.116;5.404;2023-10-19T11:07:40;99233.28;;;14.98;92.03
79453;BME280;68899;52.116;5.404;2023-10-19T11:10:06;99224.88;;;15.03;91.96
79453;BME280;68899;52.116;5.404;2023-10-19T11:12:35;99224.53;;;15.06;91.76
79453;BME280;68899;52.116;5.404;2023-10-19T11:15:01;99219.72;;;15.10;91.95
79453;BME280;68899;52.116;5.404;2023-10-19T11:17:42;99226.03;;;15.17;91.87
79453;BME280;68899;52.116;5.404;2023-10-19T11:20:09;99224.72;;;15.21;91.65
79453;BME280;68899;52.116;5.404;2023-10-19T11:22:51;99227.88;;;15.24;91.41
79453;BME280;68899;52.116;5.404;2023-10-19T11:25:22;99224.06;;;15.27;91.41
79453;BME280;68899;52.116;5.404;2023-10-19T11:27:49;99216.94;;;15.27;91.38
79453;BME280;68899;52.116;5.404;2023-10-19T11:30:26;99212.31;;;15.30;91.52
79453;BME280;68899;52.116;5.404;2023-10-19T11:32:53;99209.16;;;15.34;91.49
79453;BME280;68899;52.116;5.404;2023-10-19T11:35:27;99214.47;;;15.42;91.29
79453;BME280;68899;52.116;5.404;2023-10-19T11:38:00;99215.47;;;15.49;91.07
79453;BME280;68899;52.116;5.404;2023-10-19T11:40:28;99221.09;;;15.54;91.09
79453;BME280;68899;52.116;5.404;2023-10-19T11:42:55;99216.16;;;15.68;90.90
79453;BME280;68899;52.116;5.404;2023-10-19T11:45:27;99212.97;;;15.80;90.53
79453;BME280;68899;52.116;5.404;2023-10-19T11:47:55;99206.66;;;15.90;90.04
79453;BME280;68899;52.116;5.404;2023-10-19T11:50:23;99201.88;;;16.01;88.75
79453;BME280;68899;52.116;5.404;2023-10-19T11:52:50;99198.69;;;16.06;88.63
79453;BME280;68899;52.116;5.404;2023-10-19T11:55:19;99204.81;;;16.06;87.91
79453;BME280;68899;52.116;5.404;2023-10-19T11:57:47;99199.38;;;16.00;88.32
79453;BME280;68899;52.116;5.404;2023-10-19T12:00:14;99196.41;;;15.95;88.31
79453;BME280;68899;52.116;5.404;2023-10-19T12:02:46;99193.56;;;15.96;88.38
79453;BME280;68899;52.116;5.404;2023-10-19T12:05:13;99188.59;;;16.01;88.41
79453;BME280;68899;52.116;5.404;2023-10-19T12:07:40;99180.47;;;16.03;87.99
79453;BME280;68899;52.116;5.404;2023-10-19T12:10:08;99176.50;;;15.99;87.71
79453;BME280;68899;52.116;5.404;2023-10-19T12:12:36;99180.66;;;15.93;88.20
79453;BME280;68899;52.116;5.404;2023-10-19T12:15:23;99176.66;;;15.89;88.32
79453;BME280;68899;52.116;5.404;2023-10-19T12:17:49;99176.84;;;15.88;88.17
79453;BME280;68899;52.116;5.404;2023-10-19T12:20:17;99186.81;;;15.86;87.99
79453;BME280;68899;52.116;5.404;2023-10-19T12:22:48;99195.75;;;15.85;87.71
79453;BME280;68899;52.116;5.404;2023-10-19T12:25:18;99187.16;;;15.82;87.76
79453;BME280;68899;52.116;5.404;2023-10-19T12:27:45;99187.16;;;15.82;88.21
79453;BME280;68899;52.116;5.404;2023-10-19T12:30:11;99174.91;;;15.81;87.98
79453;BME280;68899;52.116;5.404;2023-10-19T12:32:48;99163.78;;;15.78;88.09
79453;BME280;68899;52.116;5.404;2023-10-19T12:35:19;99159.31;;;15.78;87.59
79453;BME280;68899;52.116;5.404;2023-10-19T12:37:56;99162.13;;;15.77;88.33
79453;BME280;68899;52.116;5.404;2023-10-19T12:40:23;99161.94;;;15.78;88.23
79453;BME280;68899;52.116;5.404;2023-10-19T12:42:57;99160.94;;;15.79;88.58
79453;BME280;68899;52.116;5.404;2023-10-19T12:45:25;99161.94;;;15.78;88.20
79453;BME280;68899;52.116;5.404;2023-10-19T12:47:54;99163.13;;;15.76;88.63
79453;BME280;68899;52.116;5.404;2023-10-19T12:50:21;99161.47;;;15.75;88.50
79453;BME280;68899;52.116;5.404;2023-10-19T12:52:51;99167.59;;;15.75;89.08
79453;BME280;68899;52.116;5.404;2023-10-19T12:55:18;99151.88;;;15.74;88.99
79453;BME280;68899;52.116;5.404;2023-10-19T12:57:44;99150.22;;;15.73;88.80
79453;BME280;68899;52.116;5.404;2023-10-19T13:00:11;99151.34;;;15.70;88.95
79453;BME280;68899;52.116;5.404;2023-10-19T13:02:54;99152.19;;;15.71;88.91
79453;BME280;68899;52.116;5.404;2023-10-19T13:05:27;99164.78;;;15.69;88.97
79453;BME280;68899;52.116;5.404;2023-10-19T13:07:54;99169.44;;;15.67;88.79
79453;BME280;68899;52.116;5.404;2023-10-19T13:10:28;99167.13;;;15.64;88.38
79453;BME280;68899;52.116;5.404;2023-10-19T13:13:02;99163.81;;;15.62;88.30
79453;BME280;68899;52.116;5.404;2023-10-19T13:15:33;99161.47;;;15.59;88.59
79453;BME280;68899;52.116;5.404;2023-10-19T13:18:02;99161.81;;;15.55;89.16
79453;BME280;68899;52.116;5.404;2023-10-19T13:20:29;99157.66;;;15.53;89.27
79453;BME280;68899;52.116;5.404;2023-10-19T13:23:07;99157.66;;;15.53;89.53